Time;durP1;ratioP1;P1;durP2;ratioP2;P2;SDS_P1;SDS_P2;PMS_P1;PMS_P2;Temp;Humidity;BMP_temperature;BMP_pressure;BME280_temperature;BME280_humidity;BME280_pressure;Samples;Min_cycle;Max_cycle;Signal;HPM_P1;HPM_P2
2023/05/03 00:02:05;;;;;;;7.07;3.35;;;;;;;15.69;36.75;100039.75;5074505;28;20021;-77
2023/05/03 00:04:32;;;;;;;6.60;3.30;;;;;;;16.33;36.68;100143.25;5074689;28;20094;-76
2023/05/03 00:06:57;;;;;;;10.25;2.90;;;;;;;15.95;36.47;100080.81;5074725;28;20043;-77
2023/05/03 00:09:23;;;;;;;7.38;3.20;;;;;;;15.90;36.40;100068.09;5074536;28;20565;-76
2023/05/03 00:11:48;;;;;;;11.27;3.63;;;;;;;16.21;36.58;100124.34;5073243;28;20035;-77
2023/05/03 00:14:13;;;;;;;5.78;2.70;;;;;;;16.23;36.68;100123.31;5074385;28;20020;-76
2023/05/03 00:16:39;;;;;;;6.53;3.05;;;;;;;15.77;36.69;100058.22;5075002;28;20028;-77
2023/05/03 00:19:04;;;;;;;6.95;3.28;;;;;;;16.15;36.71;100119.81;5074398;28;20032;-76
2023/05/03 00:21:30;;;;;;;7.63;2.70;;;;;;;16.18;36.53;100130.06;5074449;28;20104;-78
2023/05/03 00:23:56;;;;;;;12.35;3.17;;;;;;;16.22;36.52;100125.16;5074352;28;20463;-77
2023/05/03 00:26:21;;;;;;;6.40;2.95;;;;;;;15.71;36.73;100048.38;5074227;28;20040;-76
2023/05/03 00:28:46;;;;;;;4.65;2.67;;;;;;;15.74;36.51;100053.31;5074674;28;20047;-76
2023/05/03 00:31:12;;;;;;;5.30;2.83;;;;;;;15.81;36.69;100071.97;5074122;28;20398;-76
2023/05/03 00:33:38;;;;;;;5.20;2.58;;;;;;;16.25;36.61;100131.94;5074141;28;20417;-77
2023/05/03 00:36:09;;;;;;;6.65;3.10;;;;;;;16.08;36.65;100124.31;5073865;28;20508;-76
2023/05/03 00:38:34;;;;;;;5.25;2.95;;;;;;;15.85;36.45;100083.84;5073964;28;20024;-77
2023/05/03 00:41:01;;;;;;;7.07;3.25;;;;;;;15.64;36.58;100052.84;5074259;28;20055;-77
2023/05/03 00:43:27;;;;;;;5.05;2.92;;;;;;;15.57;36.92;100044.81;5074071;28;20607;-78
2023/05/03 00:45:53;;;;;;;4.82;2.83;;;;;;;15.62;36.43;100049.56;5073786;28;20032;-76
2023/05/03 00:48:19;;;;;;;9.05;3.60;;;;;;;15.69;36.96;100062.91;5073941;28;20021;-77
2023/05/03 00:50:46;;;;;;;3.85;3.30;;;;;;;16.11;36.65;100128.41;5073620;28;20024;-76
2023/05/03 00:53:11;;;;;;;6.97;3.95;;;;;;;15.62;37.20;100062.06;5073539;28;20024;-76
2023/05/03 00:55:37;;;;;;;4.43;2.83;;;;;;;15.62;36.94;100059.38;5072603;28;20081;-76
2023/05/03 00:58:02;;;;;;;7.97;2.90;;;;;;;16.15;37.26;100140.31;5072589;28;20029;-76
2023/05/03 01:00:28;;;;;;;7.55;3.10;;;;;;;16.17;37.25;100143.59;5072378;28;20029;-76
2023/05/03 01:02:53;;;;;;;8.50;3.35;;;;;;;16.21;36.92;100131.53;5073511;28;20051;-76
2023/05/03 01:05:21;;;;;;;5.38;3.17;;;;;;;16.14;37.14;100101.38;5072180;28;20032;-76
2023/05/03 01:08:24;;;;;;;4.47;3.20;;;;;;;15.84;36.99;100045.75;5072200;28;20417;-78
2023/05/03 01:11:09;;;;;;;6.13;2.88;;;;;;;16.16;37.02;100096.66;5073500;28;20044;-76
2023/05/03 01:14:03;;;;;;;4.40;2.47;;;;;;;16.04;37.36;100095.59;5073728;28;20095;-77
2023/05/03 01:16:39;;;;;;;11.27;3.95;;;;;;;16.03;37.80;100099.28;5071315;28;20036;-77
2023/05/03 01:19:16;;;;;;;12.57;3.78;;;;;;;15.72;38.07;100055.34;5073387;28;20035;-77
2023/05/03 01:21:53;;;;;;;4.35;3.10;;;;;;;16.02;37.92;100100.31;5073265;28;20404;-76
2023/05/03 01:24:23;;;;;;;5.07;3.03;;;;;;;15.99;38.16;100103.38;5072188;28;20047;-76
2023/05/03 01:26:48;;;;;;;5.15;2.90;;;;;;;15.95;38.20;100107.44;5073311;28;20063;-77
2023/05/03 01:29:14;;;;;;;7.93;3.22;;;;;;;15.92;38.46;100116.66;5073133;28;20489;-76
2023/05/03 01:32:02;;;;;;;6.88;3.35;;;;;;;15.93;38.70;100114.81;5073018;28;20028;-76
2023/05/03 01:34:41;;;;;;;9.30;3.47;;;;;;;15.76;38.69;100087.72;5072992;28;20485;-77
2023/05/03 01:37:09;;;;;;;9.82;5.40;;;;;;;15.22;38.50;100000.59;5072696;28;20028;-77
2023/05/03 01:39:58;;;;;;;7.25;5.05;;;;;;;15.86;39.03;100104.97;5072612;28;20566;-76
2023/05/03 01:42:25;;;;;;;12.88;4.22;;;;;;;15.43;38.91;100039.59;5072496;28;20043;-77
2023/05/03 01:44:53;;;;;;;14.07;4.38;;;;;;;15.80;39.14;100102.28;5072670;28;20035;-76
2023/05/03 01:47:19;;;;;;;3.97;3.20;;;;;;;15.25;39.18;100030.28;5072651;28;20020;-76
2023/05/03 01:49:45;;;;;;;6.53;3.75;;;;;;;15.30;39.39;100029.69;5072911;28;20105;-76
2023/05/03 01:52:10;;;;;;;6.72;3.50;;;;;;;15.63;39.31;100083.16;5072553;28;20493;-77
2023/05/03 01:54:36;;;;;;;30.20;6.07;;;;;;;15.66;39.75;100105.88;5072508;28;20432;-77
2023/05/03 01:57:01;;;;;;;8.45;4.18;;;;;;;15.38;39.51;100056.16;5072596;28;20053;-77
2023/05/03 01:59:27;;;;;;;5.43;3.80;;;;;;;15.65;39.87;100101.59;5071192;28;20020;-77
2023/05/03 02:01:52;;;;;;;5.65;3.55;;;;;;;15.04;39.78;100019.72;5072363;28;20021;-77
2023/05/03 02:04:18;;;;;;;7.22;3.90;;;;;;;15.19;39.84;100032.91;5071101;28;20029;-78
2023/05/03 02:06:43;;;;;;;73.93;10.75;;;;;;;15.58;39.80;100109.50;5072128;28;20025;-77
2023/05/03 02:09:09;;;;;;;4.95;3.17;;;;;;;15.49;39.94;100092.03;5072481;28;20024;-77
2023/05/03 02:11:34;;;;;;;7.57;3.42;;;;;;;15.06;39.96;100020.38;5071500;28;20016;-76
2023/05/03 02:14:00;;;;;;;5.38;3.53;;;;;;;15.40;39.74;100061.28;5072466;28;20025;-76
2023/05/03 02:16:26;;;;;;;8.52;3.90;;;;;;;15.52;39.76;100096.94;5072564;28;20093;-76
2023/05/03 02:18:53;;;;;;;15.52;5.22;;;;;;;15.23;39.97;100074.06;5072592;28;20017;-76
2023/05/03 02:21:18;;;;;;;5.30;3.30;;;;;;;15.35;40.15;100095.63;5072171;28;20024;-77
2023/05/03 02:23:43;;;;;;;14.30;4.82;;;;;;;14.75;40.23;100003.97;5072094;28;20021;-76
2023/05/03 02:26:09;;;;;;;40.15;7.25;;;;;;;15.38;40.16;100093.41;5072152;28;20044;-77
2023/05/03 02:28:34;;;;;;;38.20;8.10;;;;;;;15.26;40.44;100074.50;5071937;28;20025;-77
2023/05/03 02:31:00;;;;;;;5.40;3.55;;;;;;;14.95;40.17;100028.88;5071909;28;20020;-76
2023/05/03 02:33:25;;;;;;;7.07;3.70;;;;;;;15.32;40.61;100077.41;5071699;28;20391;-77
2023/05/03 02:35:51;;;;;;;5.45;3.65;;;;;;;15.45;40.42;100102.25;5071696;28;20048;-76
2023/05/03 02:38:16;;;;;;;15.88;4.25;;;;;;;15.45;40.62;100118.22;5071682;28;20028;-76
2023/05/03 02:40:41;;;;;;;15.88;4.38;;;;;;;15.41;40.79;100122.28;5071624;28;20505;-76
2023/05/03 02:43:07;;;;;;;7.75;3.95;;;;;;;14.77;40.88;100028.53;5071631;28;20412;-78
2023/05/03 02:45:35;;;;;;;8.23;3.88;;;;;;;15.08;40.84;100070.69;5071767;28;20104;-76
2023/05/03 02:48:00;;;;;;;47.08;8.85;;;;;;;14.67;40.91;99991.66;5071675;28;20210;-76
2023/05/03 02:50:26;;;;;;;67.65;10.50;;;;;;;15.08;40.54;100068.84;5071662;28;20099;-77
2023/05/03 02:52:51;;;;;;;26.08;6.20;;;;;;;15.04;40.45;100061.47;5071540;28;20387;-76
2023/05/03 02:55:17;;;;;;;7.28;4.40;;;;;;;15.38;40.43;100125.31;5071493;28;20032;-76
2023/05/03 02:57:42;;;;;;;23.55;6.38;;;;;;;15.15;40.43;100093.66;5071479;28;20056;-76
2023/05/03 03:00:10;;;;;;;34.20;7.13;;;;;;;15.33;40.65;100129.59;5071360;28;20027;-76
2023/05/03 03:02:35;;;;;;;8.93;4.55;;;;;;;14.78;40.64;100059.41;5070421;28;20016;-76
2023/05/03 03:05:01;;;;;;;8.40;4.40;;;;;;;14.80;40.76;100060.03;5071619;28;20024;-76
2023/05/03 03:07:26;;;;;;;8.10;4.10;;;;;;;15.22;40.96;100139.75;5071760;28;20032;-77
2023/05/03 03:09:51;;;;;;;8.32;3.53;;;;;;;14.63;40.95;100059.50;5070264;28;20021;-76
2023/05/03 03:12:17;;;;;;;9.45;4.57;;;;;;;14.86;41.25;100105.31;5071360;28;20078;-77
2023/05/03 03:14:44;;;;;;;7.13;3.97;;;;;;;14.89;41.59;100110.25;5071187;28;20021;-76
2023/05/03 03:17:10;;;;;;;10.32;4.28;;;;;;;14.95;41.19;100127.25;5071324;28;20484;-76
2023/05/03 03:19:36;;;;;;;7.85;3.95;;;;;;;14.37;41.59;100035.31;5071237;28;20044;-77
2023/05/03 03:22:01;;;;;;;7.57;4.30;;;;;;;15.00;41.61;100145.31;5071147;28;20051;-76
2023/05/03 03:24:26;;;;;;;10.50;4.07;;;;;;;14.60;41.64;100081.94;5071349;28;21567;-78
2023/05/03 03:26:52;;;;;;;10.98;4.30;;;;;;;14.88;41.79;100139.69;5071100;28;20123;-76
2023/05/03 03:29:17;;;;;;;8.25;4.25;;;;;;;14.25;42.05;100049.09;5071347;28;20029;-77
2023/05/03 03:31:43;;;;;;;29.50;6.60;;;;;;;14.47;41.79;100086.31;5071278;28;20402;-77
2023/05/03 03:34:11;;;;;;;13.60;4.30;;;;;;;14.50;42.07;100089.41;5071247;28;20020;-77
2023/05/03 03:36:38;;;;;;;10.60;4.93;;;;;;;14.72;42.00;100116.00;5071168;28;20025;-76
2023/05/03 03:39:03;;;;;;;25.90;6.28;;;;;;;14.70;42.11;100118.00;5071036;28;20022;-76
2023/05/03 03:41:29;;;;;;;14.55;5.63;;;;;;;14.83;42.17;100140.22;5071258;28;20013;-78
2023/05/03 03:43:54;;;;;;;10.57;5.60;;;;;;;14.76;42.08;100125.22;5071094;28;20028;-76
2023/05/03 03:46:20;;;;;;;12.40;5.57;;;;;;;14.88;41.99;100148.47;5070913;28;20408;-77
2023/05/03 03:48:45;;;;;;;10.32;4.70;;;;;;;14.52;41.85;100095.38;5070888;28;20021;-78
2023/05/03 03:51:11;;;;;;;15.65;5.38;;;;;;;14.87;41.53;100143.34;5070796;28;20029;-76
2023/05/03 03:53:36;;;;;;;10.32;4.82;;;;;;;14.68;41.42;100117.38;5070914;28;20031;-78
2023/05/03 03:56:01;;;;;;;7.05;4.97;;;;;;;14.62;41.29;100127.75;5070821;28;20536;-76
2023/05/03 03:58:27;;;;;;;9.40;4.50;;;;;;;14.89;41.13;100181.22;5070865;28;20024;-77
2023/05/03 04:00:52;;;;;;;7.20;4.90;;;;;;;14.92;41.38;100196.78;5070883;28;20486;-76
2023/05/03 04:03:18;;;;;;;8.20;4.93;;;;;;;14.32;41.60;100124.38;5070901;28;20493;-77
2023/05/03 04:05:44;;;;;;;19.92;6.05;;;;;;;14.88;42.49;100230.06;5070814;28;20029;-76
2023/05/03 04:08:10;;;;;;;34.20;6.28;;;;;;;14.82;43.13;100250.22;5070765;28;20035;-76
2023/05/03 04:10:35;;;;;;;9.77;5.22;;;;;;;14.70;44.08;100245.59;5070547;28;20489;-76
2023/05/03 04:13:00;;;;;;;11.07;4.65;;;;;;;14.13;44.89;100175.41;5070635;28;20484;-75
2023/05/03 04:15:26;;;;;;;15.20;5.18;;;;;;;14.51;45.43;100247.00;5070806;28;20103;-76
2023/05/03 04:17:51;;;;;;;7.88;4.47;;;;;;;14.58;45.81;100258.53;5070753;28;20024;-75
2023/05/03 04:20:18;;;;;;;8.98;5.20;;;;;;;14.36;46.49;100232.91;5069422;28;20390;-77
2023/05/03 04:22:43;;;;;;;20.13;14.40;;;;;;;14.48;47.15;100260.69;5069344;28;20023;-74
2023/05/03 04:25:12;;;;;;;7.70;5.68;;;;;;;14.44;48.02;100268.19;5070765;28;20107;-75
2023/05/03 04:27:38;;;;;;;12.75;5.63;;;;;;;14.41;48.21;100260.56;5069118;28;20143;-76
2023/05/03 04:30:05;;;;;;;13.10;5.30;;;;;;;14.28;48.99;100242.63;5070695;28;20489;-76
2023/05/03 04:32:36;;;;;;;10.15;5.28;;;;;;;13.95;49.53;100190.88;5070579;28;20497;-76
2023/05/03 04:35:11;;;;;;;8.07;5.75;;;;;;;14.39;50.19;100259.09;5073520;28;20028;-76
2023/05/03 04:37:37;;;;;;;6.25;5.40;;;;;;;14.22;50.25;100232.75;5074095;28;20505;-76
2023/05/03 04:40:07;;;;;;;24.30;8.38;;;;;;;14.42;51.14;100251.63;5072803;28;20024;-76
2023/05/03 04:42:33;;;;;;;61.47;11.65;;;;;;;13.88;51.45;100150.16;5072812;28;20104;-76
2023/05/03 04:44:58;;;;;;;7.57;6.13;;;;;;;14.22;51.81;100202.69;5074220;28;20108;-76
2023/05/03 04:47:24;;;;;;;12.52;6.82;;;;;;;14.21;51.39;100217.00;5072527;28;20024;-77
2023/05/03 04:49:50;;;;;;;27.60;7.32;;;;;;;13.85;51.52;100151.34;5073784;28;20027;-76
2023/05/03 04:52:15;;;;;;;10.15;7.38;;;;;;;14.27;51.26;100233.00;5073731;28;20632;-76
2023/05/03 04:54:41;;;;;;;9.20;6.25;;;;;;;14.31;51.52;100239.59;5076976;28;20035;-76
2023/05/03 04:57:08;;;;;;;52.33;10.82;;;;;;;14.44;51.23;100240.81;5092691;28;20028;-76
2023/05/03 04:59:33;;;;;;;31.98;9.13;;;;;;;14.42;51.41;100248.97;5093423;28;20092;-76
2023/05/03 05:01:59;;;;;;;11.10;6.78;;;;;;;14.19;51.65;100217.16;5093425;28;20023;-77
2023/05/03 05:04:25;;;;;;;11.30;7.40;;;;;;;14.23;51.62;100233.56;5092326;28;20410;-75
2023/05/03 05:06:52;;;;;;;13.35;7.32;;;;;;;14.44;51.11;100270.84;5093795;28;20035;-75
2023/05/03 05:09:23;;;;;;;10.57;7.90;;;;;;;14.39;52.04;100264.41;5093748;28;20024;-76
2023/05/03 05:11:48;;;;;;;100.00;17.33;;;;;;;14.17;51.94;100236.97;5093203;28;20035;-76
2023/05/03 05:14:14;;;;;;;87.15;15.77;;;;;;;13.81;51.70;100194.38;5093736;28;20054;-76
2023/05/03 05:16:39;;;;;;;26.98;10.25;;;;;;;14.27;51.57;100277.34;5093566;28;20035;-76
2023/05/03 05:19:05;;;;;;;23.40;8.50;;;;;;;14.11;51.79;100262.38;5093617;28;20502;-76
2023/05/03 05:21:31;;;;;;;12.00;7.68;;;;;;;14.19;51.87;100272.94;5093673;28;20102;-76
2023/05/03 05:23:56;;;;;;;67.57;12.57;;;;;;;14.14;51.89;100272.66;5090901;28;20067;-76
2023/05/03 05:26:21;;;;;;;28.15;10.35;;;;;;;14.10;52.32;100283.81;5087637;28;21022;-75
2023/05/03 05:28:47;;;;;;;60.85;13.95;;;;;;;13.80;52.43;100240.50;5092506;28;20032;-75
2023/05/03 05:31:12;;;;;;;185.45;24.77;;;;;;;13.98;52.74;100256.88;5098415;28;20028;-76
2023/05/03 05:33:37;;;;;;;17.80;7.97;;;;;;;13.61;52.69;100194.91;5091990;28;20036;-76
2023/05/03 05:36:04;;;;;;;51.95;12.10;;;;;;;13.88;52.79;100225.31;5091636;28;20044;-76
2023/05/03 05:38:29;;;;;;;10.98;8.75;;;;;;;13.65;53.00;100193.53;5092800;28;20506;-76
2023/05/03 05:40:55;;;;;;;14.52;7.43;;;;;;;13.41;52.88;100177.88;5091685;28;20032;-75
2023/05/03 05:43:20;;;;;;;83.15;15.38;;;;;;;14.15;52.55;100286.78;5093151;28;20024;-76
2023/05/03 05:45:46;;;;;;;45.42;11.00;;;;;;;14.24;52.57;100293.63;5091683;28;20035;-76
2023/05/03 05:48:11;;;;;;;13.15;7.65;;;;;;;14.31;52.78;100294.56;5092996;28;20028;-76
2023/05/03 05:50:37;;;;;;;27.58;9.73;;;;;;;14.27;52.88;100288.78;5092997;28;20035;-76
2023/05/03 05:53:02;;;;;;;22.75;8.48;;;;;;;14.34;52.75;100325.25;5092319;28;20515;-76
2023/05/03 05:55:27;;;;;;;215.20;43.08;;;;;;;14.39;53.10;100306.91;5092691;28;20049;-75
2023/05/03 05:57:53;;;;;;;41.85;9.43;;;;;;;14.03;52.83;100216.50;5089564;28;20024;-77
2023/05/03 06:00:20;;;;;;;9.32;7.13;;;;;;;14.37;52.99;100253.97;5083830;28;20053;-75
2023/05/03 06:02:46;;;;;;;21.30;7.72;;;;;;;14.53;52.88;100245.00;5085591;28;20036;-77
2023/05/03 06:05:11;;;;;;;13.80;7.63;;;;;;;14.50;52.70;100219.63;5083979;28;20028;-75
2023/05/03 06:07:37;;;;;;;109.43;14.38;;;;;;;14.49;52.41;100206.53;5075848;28;20408;-75
2023/05/03 06:10:03;;;;;;;9.38;7.40;;;;;;;14.84;52.34;100247.38;5088540;28;20028;-75
2023/05/03 06:12:29;;;;;;;140.70;27.67;;;;;;;14.47;52.23;100193.44;5092090;28;20046;-77
2023/05/03 06:14:54;;;;;;;117.28;20.52;;;;;;;14.69;52.37;100241.28;5091931;28;20485;-76
2023/05/03 06:17:21;;;;;;;18.40;7.55;;;;;;;14.44;52.32;100191.16;5086792;28;20039;-76
2023/05/03 06:19:48;;;;;;;466.67;66.40;;;;;;;14.85;52.43;100254.34;5087906;28;20417;-74
2023/05/03 06:22:14;;;;;;;189.18;27.65;;;;;;;14.39;52.67;100209.44;5094186;28;20020;-74
2023/05/03 06:24:39;;;;;;;9.23;6.28;;;;;;;14.73;52.71;100271.81;5091260;28;20500;-77
2023/05/03 06:27:05;;;;;;;45.67;9.52;;;;;;;14.59;52.30;100230.97;5092045;28;20048;-77
2023/05/03 06:29:30;;;;;;;76.07;12.23;;;;;;;14.19;52.13;100172.03;5091212;28;20024;-76
2023/05/03 06:31:56;;;;;;;11.43;6.88;;;;;;;14.84;52.14;100276.63;5091909;28;20021;-77
2023/05/03 06:34:21;;;;;;;159.20;26.60;;;;;;;14.55;51.78;100233.16;5091775;28;20481;-77
2023/05/03 06:36:48;;;;;;;19.15;8.25;;;;;;;14.89;52.29;100282.25;5088578;28;20028;-76
2023/05/03 06:39:13;;;;;;;13.52;8.73;;;;;;;14.64;52.40;100241.84;5089578;28;20412;-76
2023/05/03 06:41:38;;;;;;;22.80;9.57;;;;;;;14.46;51.61;100180.31;5089656;28;20032;-77
2023/05/03 06:44:05;;;;;;;14.52;9.18;;;;;;;14.61;51.15;100210.34;5090271;28;20056;-76
2023/05/03 06:46:31;;;;;;;15.65;10.80;;;;;;;14.79;51.56;100228.53;5090237;28;20107;-76
2023/05/03 06:48:56;;;;;;;19.67;11.50;;;;;;;14.97;51.10;100244.91;5090331;28;20537;-76
2023/05/03 06:51:26;;;;;;;24.23;13.32;;;;;;;15.29;51.05;100282.66;5090701;28;20028;-76
2023/05/03 06:53:54;;;;;;;32.78;14.05;;;;;;;15.15;51.34;100229.31;5091178;28;20027;-76
2023/05/03 06:56:20;;;;;;;18.00;12.70;;;;;;;15.02;50.85;100183.16;5090118;28;20035;-76
2023/05/03 06:58:46;;;;;;;13.98;12.15;;;;;;;15.55;50.60;100266.91;5090063;28;20027;-77
2023/05/03 07:01:11;;;;;;;22.85;14.60;;;;;;;14.89;51.02;100166.06;5091543;28;20095;-76
2023/05/03 07:03:37;;;;;;;24.55;14.88;;;;;;;15.26;51.05;100210.19;5089444;28;20034;-76
2023/05/03 07:06:03;;;;;;;25.60;15.55;;;;;;;15.12;50.98;100167.69;5088833;28;20032;-77
2023/05/03 07:08:28;;;;;;;53.58;15.52;;;;;;;15.44;50.86;100193.72;5089751;28;20031;-77
2023/05/03 07:10:54;;;;;;;114.82;21.33;;;;;;;15.71;50.92;100202.78;5073863;28;20029;-77
2023/05/03 07:13:19;;;;;;;13.95;9.10;;;;;;;15.65;50.70;100168.13;5079290;28;20029;-77
2023/05/03 07:15:45;;;;;;;21.90;10.18;;;;;;;16.04;50.08;100208.28;5084802;28;20588;-77
2023/05/03 07:18:10;;;;;;;25.67;8.43;;;;;;;16.06;50.16;100219.56;5085675;28;20107;-76
2023/05/03 07:20:37;;;;;;;64.63;12.52;;;;;;;16.11;50.37;100245.63;5090928;28;20147;-77
2023/05/03 07:23:03;;;;;;;31.83;10.05;;;;;;;15.27;50.28;100091.28;5087319;28;20531;-77
2023/05/03 07:25:29;;;;;;;16.83;8.63;;;;;;;16.29;50.41;100237.94;5090188;28;20019;-76
2023/05/03 07:27:54;;;;;;;10.75;7.10;;;;;;;15.75;50.00;100137.47;5085601;28;20062;-76
2023/05/03 07:30:21;;;;;;;7.13;5.82;;;;;;;16.48;50.09;100237.22;5088235;28;20015;-75
2023/05/03 07:32:46;;;;;;;47.90;9.02;;;;;;;16.41;49.46;100204.38;5083794;28;20513;-77
2023/05/03 07:35:12;;;;;;;65.00;12.43;;;;;;;16.52;48.89;100221.66;5070299;28;20025;-77
2023/05/03 07:37:37;;;;;;;81.18;15.60;;;;;;;16.69;48.57;100227.47;5082310;28;20090;-76
2023/05/03 07:40:05;;;;;;;201.70;30.65;;;;;;;16.17;48.48;100152.41;5085999;28;20057;-76
2023/05/03 07:42:31;;;;;;;333.80;49.63;;;;;;;16.70;48.55;100226.44;5083953;28;20443;-76
2023/05/03 07:44:58;;;;;;;170.65;24.50;;;;;;;16.51;47.82;100175.50;5081003;28;20020;-77
2023/05/03 07:47:23;;;;;;;22.45;8.32;;;;;;;16.52;47.89;100144.34;5082926;28;20052;-77
2023/05/03 07:49:49;;;;;;;216.00;28.65;;;;;;;17.07;48.03;100203.75;5089962;28;20471;-77
2023/05/03 07:52:16;;;;;;;157.63;23.13;;;;;;;17.10;47.54;100188.16;5090474;28;20028;-77
2023/05/03 07:54:42;;;;;;;14.57;5.97;;;;;;;17.12;47.42;100180.78;5090709;28;20467;-77
2023/05/03 07:57:08;;;;;;;23.20;7.00;;;;;;;17.09;47.69;100175.84;5081707;28;20024;-76
2023/05/03 07:59:33;;;;;;;40.22;9.77;;;;;;;17.15;47.23;100177.72;5090596;28;20024;-76
2023/05/03 08:01:58;;;;;;;20.90;9.35;;;;;;;17.15;47.11;100166.22;5089415;28;20063;-76
2023/05/03 08:04:24;;;;;;;13.85;11.05;;;;;;;17.01;46.99;100151.19;5086183;28;20095;-76
2023/05/03 08:06:49;;;;;;;59.45;12.93;;;;;;;17.11;47.02;100167.66;5088089;28;20024;-75
2023/05/03 08:09:15;;;;;;;26.13;9.02;;;;;;;17.39;47.29;100188.78;5091489;28;20107;-76
2023/05/03 08:11:40;;;;;;;210.50;33.95;;;;;;;17.48;47.03;100177.69;5093632;28;20476;-76
2023/05/03 08:14:07;;;;;;;13.00;8.73;;;;;;;17.27;47.07;100121.03;5092307;28;20024;-76
2023/05/03 08:16:32;;;;;;;9.45;7.45;;;;;;;17.69;46.74;100176.66;5091890;28;20519;-77
2023/05/03 08:18:58;;;;;;;9.15;6.20;;;;;;;17.29;46.50;100106.47;5091220;28;20106;-75
2023/05/03 08:21:24;;;;;;;93.13;16.70;;;;;;;17.97;46.11;100180.91;5085875;28;20110;-77
2023/05/03 08:23:50;;;;;;;7.68;5.65;;;;;;;18.28;45.92;100201.56;5087278;28;20119;-76
2023/05/03 08:26:16;;;;;;;13.93;6.63;;;;;;;17.99;45.71;100155.63;5076283;28;20048;-77
2023/05/03 08:28:41;;;;;;;8.50;6.43;;;;;;;17.81;45.68;100138.59;5078274;28;20024;-77
2023/05/03 08:31:07;;;;;;;10.73;7.75;;;;;;;18.22;45.81;100216.59;5090974;28;20073;-76
2023/05/03 08:33:32;;;;;;;42.25;10.95;;;;;;;17.88;45.96;100175.00;5093954;28;20520;-76
2023/05/03 08:35:58;;;;;;;7.97;6.80;;;;;;;17.68;45.90;100132.28;5096409;28;20089;-77
2023/05/03 08:38:24;;;;;;;108.97;18.65;;;;;;;18.24;45.81;100206.50;5080823;28;20039;-76
2023/05/03 08:40:57;;;;;;;59.88;9.90;;;;;;;18.43;44.70;100191.41;5087847;28;20077;-77
2023/05/03 08:43:26;;;;;;;26.30;7.15;;;;;;;18.58;44.37;100185.78;5082611;28;20024;-77
2023/05/03 08:45:51;;;;;;;5.97;5.35;;;;;;;18.43;44.34;100146.78;5089905;28;20105;-77
2023/05/03 08:48:17;;;;;;;23.63;6.30;;;;;;;18.66;44.39;100198.97;5078798;28;20050;-77
2023/05/03 08:50:43;;;;;;;7.93;5.22;;;;;;;18.67;43.81;100195.25;5092386;28;20050;-76
2023/05/03 08:53:09;;;;;;;5.85;4.20;;;;;;;18.05;43.12;100103.19;5093022;28;20024;-76
2023/05/03 08:55:36;;;;;;;53.83;8.75;;;;;;;18.19;43.02;100130.66;5086323;28;20057;-77
2023/05/03 08:58:09;;;;;;;4.53;4.13;;;;;;;18.33;43.09;100129.56;5087835;28;20024;-76
2023/05/03 09:00:35;;;;;;;6.53;4.38;;;;;;;18.69;42.70;100179.81;5090516;28;20031;-76
2023/05/03 09:03:00;;;;;;;6.47;4.80;;;;;;;18.68;42.24;100167.47;5093916;28;20020;-77
2023/05/03 09:05:28;;;;;;;13.48;6.72;;;;;;;18.71;42.26;100177.75;5085630;28;20515;-75
2023/05/03 09:08:06;;;;;;;8.15;4.75;;;;;;;18.65;42.34;100159.88;5082759;28;20028;-77
2023/05/03 09:10:37;;;;;;;9.52;4.90;;;;;;;18.35;42.22;100114.94;5076884;28;20051;-77
2023/05/03 09:13:02;;;;;;;6.05;4.50;;;;;;;18.73;42.22;100183.69;5093093;28;20028;-76
2023/05/03 09:15:29;;;;;;;6.03;4.22;;;;;;;18.86;41.83;100190.81;5083535;28;20032;-76
2023/05/03 09:18:17;;;;;;;76.45;10.32;;;;;;;18.81;41.50;100167.38;5078053;28;20455;-76
2023/05/03 09:20:50;;;;;;;22.48;6.63;;;;;;;18.96;41.57;100189.31;5087903;28;20708;-76
2023/05/03 09:23:29;;;;;;;6.70;4.10;;;;;;;18.97;41.59;100177.56;5087645;28;20020;-77
2023/05/03 09:25:55;;;;;;;4.95;3.80;;;;;;;18.94;41.50;100167.28;5090623;28;20075;-76
2023/05/03 09:28:21;;;;;;;17.33;4.75;;;;;;;18.85;41.16;100149.03;5090859;28;20628;-76
2023/05/03 09:30:48;;;;;;;6.32;3.50;;;;;;;18.92;40.95;100147.13;5092367;28;20028;-76
2023/05/03 09:33:19;;;;;;;4.13;3.03;;;;;;;18.62;40.68;100125.53;5091890;28;20032;-76
2023/05/03 09:36:11;;;;;;;4.40;3.08;;;;;;;18.84;40.44;100158.94;5090869;28;20020;-76
2023/05/03 09:38:36;;;;;;;3.72;3.25;;;;;;;18.74;40.64;100113.09;5086468;28;20044;-76
2023/05/03 09:41:04;;;;;;;37.17;7.00;;;;;;;18.80;40.31;100087.34;5095424;28;20416;-76
2023/05/03 09:43:30;;;;;;;15.15;6.32;;;;;;;19.60;39.79;100166.78;5090765;28;20064;-76
2023/05/03 09:46:16;;;;;;;4.53;2.78;;;;;;;19.62;38.92;100099.56;5090869;28;20067;-76
2023/05/03 09:48:41;;;;;;;14.82;4.72;;;;;;;20.00;38.68;100131.47;5089067;28;20131;-76
2023/05/03 09:51:08;;;;;;;17.85;6.05;;;;;;;20.14;37.98;100127.63;5090654;28;20116;-76
2023/05/03 09:53:35;;;;;;;5.07;2.95;;;;;;;20.27;38.14;100159.63;5081232;28;20497;-76
2023/05/03 09:56:11;;;;;;;5.15;3.13;;;;;;;20.13;38.03;100184.16;5066913;28;20032;-76
2023/05/03 09:58:37;;;;;;;4.20;3.17;;;;;;;19.61;38.39;100112.16;5066376;28;20094;-76
2023/05/03 10:01:03;;;;;;;4.82;3.40;;;;;;;19.72;38.68;100166.03;5066346;28;20033;-77
2023/05/03 10:03:38;;;;;;;9.15;3.72;;;;;;;19.46;38.59;100175.94;5064147;28;20107;-75
2023/05/03 10:06:09;;;;;;;26.08;5.50;;;;;;;18.86;38.85;100130.09;5051873;28;20025;-75
2023/05/03 10:08:50;;;;;;;3.40;3.10;;;;;;;18.93;39.44;100183.56;5069684;28;20035;-77
2023/05/03 10:11:17;;;;;;;78.10;11.57;;;;;;;18.80;39.77;100181.81;5067861;28;20044;-76
2023/05/03 10:13:44;;;;;;;7.35;3.67;;;;;;;18.38;40.59;100127.88;5070187;28;20036;-77
2023/05/03 10:16:16;;;;;;;8.25;3.75;;;;;;;18.10;40.97;100082.00;5066726;28;20085;-77
2023/05/03 10:18:55;;;;;;;7.18;4.70;;;;;;;18.42;43.17;100133.63;5062775;28;20489;-76
2023/05/03 10:21:32;;;;;;;17.65;5.85;;;;;;;18.14;43.06;100095.75;5070047;28;20013;-75
2023/05/03 10:24:17;;;;;;;5.32;3.90;;;;;;;18.55;43.92;100162.97;5066322;28;20432;-77
2023/05/03 10:26:50;;;;;;;15.55;4.78;;;;;;;18.56;43.30;100169.13;5060085;28;20043;-75
2023/05/03 10:29:33;;;;;;;8.57;4.53;;;;;;;18.52;44.09;100170.59;5068134;28;20074;-77
2023/05/03 10:32:35;;;;;;;67.13;9.57;;;;;;;18.47;44.28;100178.44;5082935;28;20101;-75
2023/05/03 10:35:12;;;;;;;23.50;6.47;;;;;;;18.40;44.04;100163.25;5069414;28;20123;-75
2023/05/03 10:37:41;;;;;;;6.00;4.80;;;;;;;18.31;44.13;100159.19;5069699;28;20056;-77
2023/05/03 10:40:14;;;;;;;87.93;20.70;;;;;;;18.32;44.10;100160.00;5070567;28;20105;-77
2023/05/03 10:42:59;;;;;;;7.88;7.07;;;;;;;18.62;44.74;100187.88;5070357;28;20028;-75
2023/05/03 10:45:30;;;;;;;16.48;5.47;;;;;;;18.63;44.24;100183.34;5070190;28;20105;-76
2023/05/03 10:48:11;;;;;;;11.13;6.68;;;;;;;18.71;44.91;100185.78;5070195;28;20029;-77
2023/05/03 10:50:40;;;;;;;32.33;6.75;;;;;;;18.35;45.10;100117.63;5069337;28;20040;-76
2023/05/03 10:53:05;;;;;;;14.15;4.32;;;;;;;18.29;45.56;100112.31;5061403;28;20493;-76
2023/05/03 10:55:31;;;;;;;6.18;3.90;;;;;;;18.32;46.25;100135.94;5067437;28;20040;-76
2023/05/03 10:57:57;;;;;;;6.57;3.72;;;;;;;18.17;45.81;100095.31;5067580;28;20024;-77
2023/05/03 11:00:32;;;;;;;7.03;3.55;;;;;;;18.24;46.17;100104.94;5066900;28;20452;-75
2023/05/03 11:03:28;;;;;;;62.92;10.77;;;;;;;18.41;46.56;100132.81;5065157;28;20029;-74
2023/05/03 11:05:54;;;;;;;11.05;4.25;;;;;;;18.28;46.36;100108.81;5057240;28;20109;-76
2023/05/03 11:08:22;;;;;;;10.05;4.38;;;;;;;18.24;46.85;100120.97;5068513;28;20110;-76
2023/05/03 11:10:50;;;;;;;6.20;4.40;;;;;;;18.12;47.29;100130.69;5065451;28;20433;-77
2023/05/03 11:13:16;;;;;;;6.07;4.28;;;;;;;18.12;47.45;100137.91;5052108;28;20409;-74
2023/05/03 11:15:41;;;;;;;6.68;4.28;;;;;;;17.99;47.49;100128.91;5062441;28;20105;-77
2023/05/03 11:18:10;;;;;;;42.55;5.82;;;;;;;18.11;47.38;100142.44;5061948;28;20091;-77
2023/05/03 11:20:36;;;;;;;4.90;3.50;;;;;;;18.04;47.31;100122.94;5067753;28;20077;-75
2023/05/03 11:23:02;;;;;;;9.05;4.43;;;;;;;18.12;47.67;100133.38;5057050;28;20033;-74